Portada
METAR-TAF:

METAR-TAF

Aeroports :

Còrdova, Espanya

latitud: 37-51N, longitud: 004-51W, altitud: 90 m

Observació

L'informe es va fer fa 24 minuts, a les 22:30 UTC
Vent 1 kt del Nord
Temperatura 10°C
Humitat 82%
Pressió 1015 hPa
Visibilitat 10 km o més

METAR: LEBA 212230Z AUTO 35001KT 9999 NCD 10/07 Q1015

Hora: 00:54 (22:54 UTC)

Pronòstic

L'informe es va fer fa 5 hores i 54 minuts, a les 17:00 UTC
Pronòstic vàlid del 21 a les 18 UTC al 22 a les 03 UTC
Vent 3 kt amb direcció variable
Visibilitat 10 km o més
Escasses núvols a una alçada de 4500 ft

TAF: LEBA 211700Z 2118/2203 VRB03KT 9999 FEW045

Observacions i pronòstics meteorològics de més de 4000 aeroports (METAR i TAF).

Les estacions disponibles són els punts grocs i vermells al mapa.

Posi el ratolí al punt desitjat per veure el nom de l'estació.

Feu clic per veure les observacions i els pronòstics meteorològics.

Per canviar el mapa: feu clic els botons verds amb una creu de color negre per apropar; al botó verd amb un guió per allunyar la imatge; o en les fletxes verdes per a mapes adjacents.


METAR-TAF: